sensor_id;sensor_type;location;lat;lon;timestamp;temperature;humidity
240;DHT22;104;53.590;10.004;2022-09-29T00:00:24;9.60;96.80
240;DHT22;104;53.590;10.004;2022-09-29T00:02:52;9.50;96.80
240;DHT22;104;53.590;10.004;2022-09-29T00:05:21;9.50;96.80
240;DHT22;104;53.590;10.004;2022-09-29T00:07:48;9.50;96.80
240;DHT22;104;53.590;10.004;2022-09-29T00:10:15;9.40;96.80
240;DHT22;104;53.590;10.004;2022-09-29T00:12:42;9.40;96.80
240;DHT22;104;53.590;10.004;2022-09-29T00:15:10;9.40;96.80
240;DHT22;104;53.590;10.004;2022-09-29T00:17:38;9.40;96.80
240;DHT22;104;53.590;10.004;2022-09-29T00:20:06;9.50;96.80
240;DHT22;104;53.590;10.004;2022-09-29T00:22:34;9.50;96.80
240;DHT22;104;53.590;10.004;2022-09-29T00:25:02;9.70;96.80
240;DHT22;104;53.590;10.004;2022-09-29T00:27:29;9.70;96.80
240;DHT22;104;53.590;10.004;2022-09-29T00:29:56;9.80;96.80
240;DHT22;104;53.590;10.004;2022-09-29T00:32:23;9.80;96.80
240;DHT22;104;53.590;10.004;2022-09-29T00:34:50;9.80;96.80
240;DHT22;104;53.590;10.004;2022-09-29T00:39:46;9.80;96.80
240;DHT22;104;53.590;10.004;2022-09-29T00:42:16;9.80;96.80
240;DHT22;104;53.590;10.004;2022-09-29T00:45:11;9.70;96.80
240;DHT22;104;53.590;10.004;2022-09-29T00:47:40;9.70;96.80
240;DHT22;104;53.590;10.004;2022-09-29T00:50:13;9.60;96.80
240;DHT22;104;53.590;10.004;2022-09-29T00:52:45;9.60;96.80
240;DHT22;104;53.590;10.004;2022-09-29T00:57:48;9.70;96.80
240;DHT22;104;53.590;10.004;2022-09-29T01:00:17;9.70;96.80
240;DHT22;104;53.590;10.004;2022-09-29T01:02:47;9.60;96.80
240;DHT22;104;53.590;10.004;2022-09-29T01:05:18;9.60;96.80
240;DHT22;104;53.590;10.004;2022-09-29T01:10:17;9.50;96.80
240;DHT22;104;53.590;10.004;2022-09-29T01:12:46;9.50;96.80
240;DHT22;104;53.590;10.004;2022-09-29T01:15:16;9.50;96.80
240;DHT22;104;53.590;10.004;2022-09-29T01:17:44;9.50;96.80
240;DHT22;104;53.590;10.004;2022-09-29T01:20:13;9.60;96.80
240;DHT22;104;53.590;10.004;2022-09-29T01:23:04;9.60;96.80
240;DHT22;104;53.590;10.004;2022-09-29T01:26:08;9.60;96.80
240;DHT22;104;53.590;10.004;2022-09-29T01:29:13;9.60;96.80
240;DHT22;104;53.590;10.004;2022-09-29T01:31:52;9.60;96.80
240;DHT22;104;53.590;10.004;2022-09-29T01:34:28;9.60;96.80
240;DHT22;104;53.590;10.004;2022-09-29T01:37:05;9.60;96.80
240;DHT22;104;53.590;10.004;2022-09-29T01:39:40;9.60;96.80
240;DHT22;104;53.590;10.004;2022-09-29T01:42:11;9.60;96.80
240;DHT22;104;53.590;10.004;2022-09-29T01:44:41;9.60;96.80
240;DHT22;104;53.590;10.004;2022-09-29T01:47:13;9.50;96.80
240;DHT22;104;53.590;10.004;2022-09-29T01:49:49;9.40;96.80
240;DHT22;104;53.590;10.004;2022-09-29T01:52:20;9.40;96.80
240;DHT22;104;53.590;10.004;2022-09-29T01:54:52;9.30;96.80
240;DHT22;104;53.590;10.004;2022-09-29T01:57:24;9.30;96.80
240;DHT22;104;53.590;10.004;2022-09-29T01:59:56;9.30;96.80
240;DHT22;104;53.590;10.004;2022-09-29T02:02:31;9.30;96.80
240;DHT22;104;53.590;10.004;2022-09-29T02:05:04;9.20;96.80
240;DHT22;104;53.590;10.004;2022-09-29T02:07:37;9.10;96.80
240;DHT22;104;53.590;10.004;2022-09-29T02:10:09;8.90;96.80
240;DHT22;104;53.590;10.004;2022-09-29T02:12:39;8.90;96.80
240;DHT22;104;53.590;10.004;2022-09-29T02:15:11;8.80;96.80
240;DHT22;104;53.590;10.004;2022-09-29T02:17:42;8.80;96.80
240;DHT22;104;53.590;10.004;2022-09-29T02:20:11;8.70;96.80
240;DHT22;104;53.590;10.004;2022-09-29T02:22:39;8.70;96.80
240;DHT22;104;53.590;10.004;2022-09-29T02:25:08;8.70;96.80
240;DHT22;104;53.590;10.004;2022-09-29T02:27:37;8.70;96.80
240;DHT22;104;53.590;10.004;2022-09-29T02:30:05;8.60;96.80
240;DHT22;104;53.590;10.004;2022-09-29T02:32:33;8.70;96.80
240;DHT22;104;53.590;10.004;2022-09-29T02:35:04;8.60;96.80
240;DHT22;104;53.590;10.004;2022-09-29T02:37:42;8.60;96.80
240;DHT22;104;53.590;10.004;2022-09-29T02:40:25;8.50;96.80
240;DHT22;104;53.590;10.004;2022-09-29T02:43:14;8.50;96.80
240;DHT22;104;53.590;10.004;2022-09-29T02:45:54;8.50;96.80
240;DHT22;104;53.590;10.004;2022-09-29T02:48:40;8.50;96.80
240;DHT22;104;53.590;10.004;2022-09-29T02:51:18;8.50;96.80
240;DHT22;104;53.590;10.004;2022-09-29T02:54:00;8.40;96.80
240;DHT22;104;53.590;10.004;2022-09-29T02:56:37;8.30;96.80
240;DHT22;104;53.590;10.004;2022-09-29T02:59:09;8.20;96.80
240;DHT22;104;53.590;10.004;2022-09-29T03:01:47;8.20;96.80
240;DHT22;104;53.590;10.004;2022-09-29T03:04:15;8.10;96.80
240;DHT22;104;53.590;10.004;2022-09-29T03:06:44;8.10;96.80
240;DHT22;104;53.590;10.004;2022-09-29T03:09:11;8.10;96.80
240;DHT22;104;53.590;10.004;2022-09-29T03:11:38;8.20;96.80
240;DHT22;104;53.590;10.004;2022-09-29T03:14:05;8.30;96.80
240;DHT22;104;53.590;10.004;2022-09-29T03:16:32;8.20;96.80
240;DHT22;104;53.590;10.004;2022-09-29T03:19:00;8.10;96.80
240;DHT22;104;53.590;10.004;2022-09-29T03:21:27;8.10;96.80
240;DHT22;104;53.590;10.004;2022-09-29T03:23:55;8.10;96.80
240;DHT22;104;53.590;10.004;2022-09-29T03:26:22;8.10;96.80
240;DHT22;104;53.590;10.004;2022-09-29T03:28:49;8.10;96.80
240;DHT22;104;53.590;10.004;2022-09-29T03:31:17;8.10;96.80
240;DHT22;104;53.590;10.004;2022-09-29T03:33:44;8.10;96.80
240;DHT22;104;53.590;10.004;2022-09-29T03:36:11;8.10;96.80
240;DHT22;104;53.590;10.004;2022-09-29T03:38:38;8.00;96.80
240;DHT22;104;53.590;10.004;2022-09-29T03:41:07;7.90;96.80
240;DHT22;104;53.590;10.004;2022-09-29T03:43:34;7.90;96.80
240;DHT22;104;53.590;10.004;2022-09-29T03:46:01;7.90;96.80
240;DHT22;104;53.590;10.004;2022-09-29T03:48:30;7.90;96.80
240;DHT22;104;53.590;10.004;2022-09-29T03:51:00;7.90;96.80
240;DHT22;104;53.590;10.004;2022-09-29T03:53:27;7.90;96.80
240;DHT22;104;53.590;10.004;2022-09-29T03:55:54;7.80;96.80
240;DHT22;104;53.590;10.004;2022-09-29T03:58:22;7.80;96.80
240;DHT22;104;53.590;10.004;2022-09-29T04:00:49;7.80;96.80
240;DHT22;104;53.590;10.004;2022-09-29T04:03:16;7.70;96.80
240;DHT22;104;53.590;10.004;2022-09-29T04:05:44;7.60;96.80
240;DHT22;104;53.590;10.004;2022-09-29T04:08:11;7.70;96.80
240;DHT22;104;53.590;10.004;2022-09-29T04:10:39;7.60;96.80
240;DHT22;104;53.590;10.004;2022-09-29T04:13:07;7.50;96.80
240;DHT22;104;53.590;10.004;2022-09-29T04:15:35;7.50;96.80
240;DHT22;104;53.590;10.004;2022-09-29T04:18:03;7.50;96.80
240;DHT22;104;53.590;10.004;2022-09-29T04:20:31;7.50;96.80
240;DHT22;104;53.590;10.004;2022-09-29T04:22:58;7.40;96.80
240;DHT22;104;53.590;10.004;2022-09-29T04:25:25;7.50;96.80
240;DHT22;104;53.590;10.004;2022-09-29T04:27:53;7.50;96.80
240;DHT22;104;53.590;10.004;2022-09-29T04:30:20;7.50;96.80
240;DHT22;104;53.590;10.004;2022-09-29T04:32:48;7.50;96.80
240;DHT22;104;53.590;10.004;2022-09-29T04:35:15;7.50;96.80
240;DHT22;104;53.590;10.004;2022-09-29T04:37:43;7.50;96.80
240;DHT22;104;53.590;10.004;2022-09-29T04:40:10;7.50;96.80
240;DHT22;104;53.590;10.004;2022-09-29T04:42:37;7.40;96.80
240;DHT22;104;53.590;10.004;2022-09-29T04:45:05;7.40;96.80
240;DHT22;104;53.590;10.004;2022-09-29T04:47:32;7.40;96.80
240;DHT22;104;53.590;10.004;2022-09-29T04:50:00;7.40;96.80
240;DHT22;104;53.590;10.004;2022-09-29T04:52:27;7.30;96.80
240;DHT22;104;53.590;10.004;2022-09-29T04:59:49;7.40;96.80
240;DHT22;104;53.590;10.004;2022-09-29T05:02:16;7.40;96.80
240;DHT22;104;53.590;10.004;2022-09-29T05:04:44;7.80;96.80
240;DHT22;104;53.590;10.004;2022-09-29T05:07:14;7.80;96.80
240;DHT22;104;53.590;10.004;2022-09-29T05:09:41;8.20;96.80
240;DHT22;104;53.590;10.004;2022-09-29T05:12:08;8.30;96.80
240;DHT22;104;53.590;10.004;2022-09-29T05:14:35;8.40;96.80
240;DHT22;104;53.590;10.004;2022-09-29T05:17:02;8.60;96.80
240;DHT22;104;53.590;10.004;2022-09-29T05:19:29;8.70;96.80
240;DHT22;104;53.590;10.004;2022-09-29T05:21:56;8.80;96.80
240;DHT22;104;53.590;10.004;2022-09-29T05:24:26;8.90;96.80
240;DHT22;104;53.590;10.004;2022-09-29T05:26:53;9.00;96.80
240;DHT22;104;53.590;10.004;2022-09-29T05:29:20;9.10;96.80
240;DHT22;104;53.590;10.004;2022-09-29T05:31:48;9.10;96.80
240;DHT22;104;53.590;10.004;2022-09-29T05:34:15;9.20;96.80
240;DHT22;104;53.590;10.004;2022-09-29T05:39:09;9.30;96.80
240;DHT22;104;53.590;10.004;2022-09-29T05:41:38;9.40;96.80
240;DHT22;104;53.590;10.004;2022-09-29T05:44:05;9.50;96.80
240;DHT22;104;53.590;10.004;2022-09-29T05:48:59;9.50;96.80
240;DHT22;104;53.590;10.004;2022-09-29T05:51:27;9.60;96.80
240;DHT22;104;53.590;10.004;2022-09-29T05:53:54;9.80;96.80
240;DHT22;104;53.590;10.004;2022-09-29T05:56:24;9.80;96.80
240;DHT22;104;53.590;10.004;2022-09-29T05:58:53;9.90;96.80
240;DHT22;104;53.590;10.004;2022-09-29T06:01:22;10.00;96.80
240;DHT22;104;53.590;10.004;2022-09-29T06:03:51;10.00;96.80
240;DHT22;104;53.590;10.004;2022-09-29T06:06:20;10.00;96.80
240;DHT22;104;53.590;10.004;2022-09-29T06:08:48;10.10;96.80
240;DHT22;104;53.590;10.004;2022-09-29T06:11:18;10.10;96.80
240;DHT22;104;53.590;10.004;2022-09-29T06:13:47;10.20;96.80
240;DHT22;104;53.590;10.004;2022-09-29T06:16:17;10.20;96.80
240;DHT22;104;53.590;10.004;2022-09-29T06:18:45;10.30;96.80
240;DHT22;104;53.590;10.004;2022-09-29T06:21:18;10.60;96.80
240;DHT22;104;53.590;10.004;2022-09-29T06:23:45;10.70;96.80
240;DHT22;104;53.590;10.004;2022-09-29T06:26:15;10.70;96.80
240;DHT22;104;53.590;10.004;2022-09-29T06:28:42;10.80;96.80
240;DHT22;104;53.590;10.004;2022-09-29T06:31:11;10.80;96.80
240;DHT22;104;53.590;10.004;2022-09-29T06:33:40;11.00;96.80
240;DHT22;104;53.590;10.004;2022-09-29T06:36:10;11.00;96.80
240;DHT22;104;53.590;10.004;2022-09-29T06:41:25;10.80;96.30
240;DHT22;104;53.590;10.004;2022-09-29T06:46:21;10.70;96.80
240;DHT22;104;53.590;10.004;2022-09-29T06:48:49;10.60;96.80
240;DHT22;104;53.590;10.004;2022-09-29T06:51:16;10.60;96.80
240;DHT22;104;53.590;10.004;2022-09-29T06:53:46;10.60;96.80
240;DHT22;104;53.590;10.004;2022-09-29T06:56:13;10.60;96.80
240;DHT22;104;53.590;10.004;2022-09-29T06:58:40;10.60;96.80
240;DHT22;104;53.590;10.004;2022-09-29T07:01:08;10.70;96.80
240;DHT22;104;53.590;10.004;2022-09-29T07:03:36;10.80;96.80
240;DHT22;104;53.590;10.004;2022-09-29T07:06:06;10.90;96.60
240;DHT22;104;53.590;10.004;2022-09-29T07:08:34;11.10;95.80
240;DHT22;104;53.590;10.004;2022-09-29T07:11:03;11.30;94.80
240;DHT22;104;53.590;10.004;2022-09-29T07:13:30;11.30;94.70
240;DHT22;104;53.590;10.004;2022-09-29T07:16:03;11.30;93.90
240;DHT22;104;53.590;10.004;2022-09-29T07:18:31;11.40;92.90
240;DHT22;104;53.590;10.004;2022-09-29T07:20:59;11.20;92.20
240;DHT22;104;53.590;10.004;2022-09-29T07:23:27;11.10;92.70
240;DHT22;104;53.590;10.004;2022-09-29T07:28:27;11.00;93.60
240;DHT22;104;53.590;10.004;2022-09-29T07:30:59;11.00;93.90
240;DHT22;104;53.590;10.004;2022-09-29T07:33:26;11.10;93.90
240;DHT22;104;53.590;10.004;2022-09-29T07:35:53;11.30;93.30
240;DHT22;104;53.590;10.004;2022-09-29T07:38:25;11.30;93.00
240;DHT22;104;53.590;10.004;2022-09-29T07:40:53;11.40;93.80
240;DHT22;104;53.590;10.004;2022-09-29T07:43:20;11.40;93.90
240;DHT22;104;53.590;10.004;2022-09-29T07:45:48;11.40;92.80
240;DHT22;104;53.590;10.004;2022-09-29T07:48:16;11.40;92.20
240;DHT22;104;53.590;10.004;2022-09-29T07:50:44;11.70;91.90
240;DHT22;104;53.590;10.004;2022-09-29T07:53:12;11.70;90.60
240;DHT22;104;53.590;10.004;2022-09-29T07:55:39;11.70;90.30
240;DHT22;104;53.590;10.004;2022-09-29T07:58:08;11.90;91.10
240;DHT22;104;53.590;10.004;2022-09-29T08:00:35;12.20;89.60
240;DHT22;104;53.590;10.004;2022-09-29T08:03:03;12.20;89.50
240;DHT22;104;53.590;10.004;2022-09-29T08:05:31;12.70;86.80
240;DHT22;104;53.590;10.004;2022-09-29T08:07:59;12.70;86.80
240;DHT22;104;53.590;10.004;2022-09-29T08:10:26;12.80;85.50
240;DHT22;104;53.590;10.004;2022-09-29T08:12:54;12.70;85.50
240;DHT22;104;53.590;10.004;2022-09-29T08:15:23;12.70;85.50
240;DHT22;104;53.590;10.004;2022-09-29T08:17:51;12.70;85.30
240;DHT22;104;53.590;10.004;2022-09-29T08:20:19;12.70;85.20
240;DHT22;104;53.590;10.004;2022-09-29T08:22:46;12.70;85.30
240;DHT22;104;53.590;10.004;2022-09-29T08:25:13;12.70;85.20
240;DHT22;104;53.590;10.004;2022-09-29T08:30:09;12.70;85.40
240;DHT22;104;53.590;10.004;2022-09-29T08:32:38;12.70;85.60
240;DHT22;104;53.590;10.004;2022-09-29T08:35:09;12.90;85.10
240;DHT22;104;53.590;10.004;2022-09-29T08:40:04;13.30;84.10
240;DHT22;104;53.590;10.004;2022-09-29T08:42:41;13.60;83.70
240;DHT22;104;53.590;10.004;2022-09-29T08:45:12;13.70;82.50
240;DHT22;104;53.590;10.004;2022-09-29T08:47:43;13.90;82.10
240;DHT22;104;53.590;10.004;2022-09-29T08:50:15;14.10;81.70
240;DHT22;104;53.590;10.004;2022-09-29T08:52:50;14.40;79.80
240;DHT22;104;53.590;10.004;2022-09-29T08:55:26;14.50;79.90
240;DHT22;104;53.590;10.004;2022-09-29T08:57:57;14.60;78.70
240;DHT22;104;53.590;10.004;2022-09-29T09:00:32;14.60;78.30
240;DHT22;104;53.590;10.004;2022-09-29T09:03:18;14.90;78.20
240;DHT22;104;53.590;10.004;2022-09-29T09:06:06;15.30;76.60
240;DHT22;104;53.590;10.004;2022-09-29T09:08:52;15.40;74.90
240;DHT22;104;53.590;10.004;2022-09-29T09:11:32;15.20;75.10
240;DHT22;104;53.590;10.004;2022-09-29T09:14:09;15.20;75.90
240;DHT22;104;53.590;10.004;2022-09-29T09:16:48;15.20;75.90
240;DHT22;104;53.590;10.004;2022-09-29T09:19:38;15.10;75.30
240;DHT22;104;53.590;10.004;2022-09-29T09:22:19;14.90;76.10
240;DHT22;104;53.590;10.004;2022-09-29T09:24:53;14.90;76.70
240;DHT22;104;53.590;10.004;2022-09-29T09:27:25;15.00;76.60
240;DHT22;104;53.590;10.004;2022-09-29T09:30:04;15.10;76.30
240;DHT22;104;53.590;10.004;2022-09-29T09:32:38;15.10;76.00
240;DHT22;104;53.590;10.004;2022-09-29T09:35:23;15.10;75.70
240;DHT22;104;53.590;10.004;2022-09-29T09:37:58;15.20;75.90
240;DHT22;104;53.590;10.004;2022-09-29T09:40:28;15.20;76.30
240;DHT22;104;53.590;10.004;2022-09-29T09:43:02;15.60;75.00
240;DHT22;104;53.590;10.004;2022-09-29T09:45:34;15.60;75.00
240;DHT22;104;53.590;10.004;2022-09-29T09:48:05;16.00;73.90
240;DHT22;104;53.590;10.004;2022-09-29T09:50:37;16.00;73.30
240;DHT22;104;53.590;10.004;2022-09-29T09:53:11;16.10;73.00
240;DHT22;104;53.590;10.004;2022-09-29T09:55:41;16.10;73.10
240;DHT22;104;53.590;10.004;2022-09-29T09:58:27;16.20;72.60
240;DHT22;104;53.590;10.004;2022-09-29T10:00:59;16.00;72.70
240;DHT22;104;53.590;10.004;2022-09-29T10:03:28;15.90;72.90
240;DHT22;104;53.590;10.004;2022-09-29T10:05:57;15.90;72.80
240;DHT22;104;53.590;10.004;2022-09-29T10:08:26;16.00;72.80
240;DHT22;104;53.590;10.004;2022-09-29T10:10:56;15.70;74.00
240;DHT22;104;53.590;10.004;2022-09-29T10:13:25;15.70;73.90
240;DHT22;104;53.590;10.004;2022-09-29T10:15:55;15.60;74.60
240;DHT22;104;53.590;10.004;2022-09-29T10:18:27;15.50;75.40
240;DHT22;104;53.590;10.004;2022-09-29T10:20:56;15.40;75.30
240;DHT22;104;53.590;10.004;2022-09-29T10:23:26;15.40;75.30
240;DHT22;104;53.590;10.004;2022-09-29T10:25:57;15.40;74.80
240;DHT22;104;53.590;10.004;2022-09-29T10:28:26;15.10;76.00
240;DHT22;104;53.590;10.004;2022-09-29T10:31:02;14.90;76.60
240;DHT22;104;53.590;10.004;2022-09-29T10:33:56;14.90;76.70
240;DHT22;104;53.590;10.004;2022-09-29T10:36:28;14.60;77.10
240;DHT22;104;53.590;10.004;2022-09-29T10:38:57;14.60;78.00
240;DHT22;104;53.590;10.004;2022-09-29T10:41:25;14.60;78.00
240;DHT22;104;53.590;10.004;2022-09-29T10:43:52;14.80;77.90
240;DHT22;104;53.590;10.004;2022-09-29T10:46:37;15.10;76.90
240;DHT22;104;53.590;10.004;2022-09-29T10:49:09;15.20;76.60
240;DHT22;104;53.590;10.004;2022-09-29T10:51:40;15.40;75.80
240;DHT22;104;53.590;10.004;2022-09-29T10:54:09;15.40;75.60
240;DHT22;104;53.590;10.004;2022-09-29T10:56:45;15.20;75.90
240;DHT22;104;53.590;10.004;2022-09-29T10:59:15;15.20;75.90
240;DHT22;104;53.590;10.004;2022-09-29T11:01:45;15.00;76.50
240;DHT22;104;53.590;10.004;2022-09-29T11:04:17;14.80;77.00
240;DHT22;104;53.590;10.004;2022-09-29T11:06:47;14.60;77.30
240;DHT22;104;53.590;10.004;2022-09-29T11:09:29;14.70;78.00
240;DHT22;104;53.590;10.004;2022-09-29T11:11:58;14.80;77.70
240;DHT22;104;53.590;10.004;2022-09-29T11:14:27;15.00;77.20
240;DHT22;104;53.590;10.004;2022-09-29T11:16:56;15.10;76.70
240;DHT22;104;53.590;10.004;2022-09-29T11:19:24;15.60;75.70
240;DHT22;104;53.590;10.004;2022-09-29T11:22:19;15.60;75.70
240;DHT22;104;53.590;10.004;2022-09-29T11:25:09;15.70;75.10
240;DHT22;104;53.590;10.004;2022-09-29T11:27:49;15.70;74.40
240;DHT22;104;53.590;10.004;2022-09-29T11:30:22;15.60;74.90
240;DHT22;104;53.590;10.004;2022-09-29T11:33:00;15.60;74.90
240;DHT22;104;53.590;10.004;2022-09-29T11:35:39;15.30;75.70
240;DHT22;104;53.590;10.004;2022-09-29T11:38:30;15.10;76.50
240;DHT22;104;53.590;10.004;2022-09-29T11:41:05;15.10;76.90
240;DHT22;104;53.590;10.004;2022-09-29T11:43:43;15.20;76.90
240;DHT22;104;53.590;10.004;2022-09-29T11:46:28;15.00;76.80
240;DHT22;104;53.590;10.004;2022-09-29T11:49:23;15.10;76.90
240;DHT22;104;53.590;10.004;2022-09-29T11:52:04;15.50;75.20
240;DHT22;104;53.590;10.004;2022-09-29T11:55:01;15.50;75.20
240;DHT22;104;53.590;10.004;2022-09-29T11:57:48;15.70;74.90
240;DHT22;104;53.590;10.004;2022-09-29T12:00:19;15.70;74.40
240;DHT22;104;53.590;10.004;2022-09-29T12:06:05;15.90;73.70
240;DHT22;104;53.590;10.004;2022-09-29T12:08:48;16.00;73.50
240;DHT22;104;53.590;10.004;2022-09-29T12:11:26;16.10;73.50
240;DHT22;104;53.590;10.004;2022-09-29T12:14:06;16.20;73.40
240;DHT22;104;53.590;10.004;2022-09-29T12:16:49;16.10;72.30
240;DHT22;104;53.590;10.004;2022-09-29T12:19:20;15.90;72.30
240;DHT22;104;53.590;10.004;2022-09-29T12:21:51;15.70;73.10
240;DHT22;104;53.590;10.004;2022-09-29T12:24:31;15.40;74.10
240;DHT22;104;53.590;10.004;2022-09-29T12:27:04;15.40;74.10
240;DHT22;104;53.590;10.004;2022-09-29T12:29:35;15.40;74.40
240;DHT22;104;53.590;10.004;2022-09-29T12:32:07;15.40;74.40
240;DHT22;104;53.590;10.004;2022-09-29T12:34:41;15.50;73.60
240;DHT22;104;53.590;10.004;2022-09-29T12:37:14;15.60;72.40
240;DHT22;104;53.590;10.004;2022-09-29T12:39:47;15.60;73.10
240;DHT22;104;53.590;10.004;2022-09-29T12:42:25;15.60;73.20
240;DHT22;104;53.590;10.004;2022-09-29T12:44:59;15.80;72.90
240;DHT22;104;53.590;10.004;2022-09-29T12:47:40;15.80;72.90
240;DHT22;104;53.590;10.004;2022-09-29T12:50:16;16.60;71.40
240;DHT22;104;53.590;10.004;2022-09-29T12:52:48;16.60;71.40
240;DHT22;104;53.590;10.004;2022-09-29T12:55:27;16.90;70.10
240;DHT22;104;53.590;10.004;2022-09-29T12:58:00;16.70;70.10
240;DHT22;104;53.590;10.004;2022-09-29T13:00:31;16.70;70.60
240;DHT22;104;53.590;10.004;2022-09-29T13:03:28;16.70;70.20
240;DHT22;104;53.590;10.004;2022-09-29T13:06:23;16.60;70.00
240;DHT22;104;53.590;10.004;2022-09-29T13:09:30;16.30;69.70
240;DHT22;104;53.590;10.004;2022-09-29T13:12:17;16.10;69.50
240;DHT22;104;53.590;10.004;2022-09-29T13:15:18;16.10;70.00
240;DHT22;104;53.590;10.004;2022-09-29T13:18:02;16.10;70.00
240;DHT22;104;53.590;10.004;2022-09-29T13:20:54;16.20;69.80
240;DHT22;104;53.590;10.004;2022-09-29T13:23:31;16.60;67.70
240;DHT22;104;53.590;10.004;2022-09-29T13:26:33;16.80;68.10
240;DHT22;104;53.590;10.004;2022-09-29T13:29:04;17.10;67.20
240;DHT22;104;53.590;10.004;2022-09-29T13:31:44;17.40;66.50
240;DHT22;104;53.590;10.004;2022-09-29T13:34:22;17.50;67.80
240;DHT22;104;53.590;10.004;2022-09-29T13:37:05;17.30;68.20
240;DHT22;104;53.590;10.004;2022-09-29T13:39:34;17.10;69.10
240;DHT22;104;53.590;10.004;2022-09-29T13:45:41;16.90;70.20
240;DHT22;104;53.590;10.004;2022-09-29T13:56:20;16.30;70.80
240;DHT22;104;53.590;10.004;2022-09-29T13:58:58;16.10;71.40
240;DHT22;104;53.590;10.004;2022-09-29T14:01:33;16.00;71.60
240;DHT22;104;53.590;10.004;2022-09-29T14:04:37;15.80;71.30
240;DHT22;104;53.590;10.004;2022-09-29T14:07:35;15.90;71.40
240;DHT22;104;53.590;10.004;2022-09-29T14:10:13;15.90;71.60
240;DHT22;104;53.590;10.004;2022-09-29T14:12:44;16.00;71.70
240;DHT22;104;53.590;10.004;2022-09-29T14:15:25;16.20;71.20
240;DHT22;104;53.590;10.004;2022-09-29T14:17:56;16.40;69.60
240;DHT22;104;53.590;10.004;2022-09-29T14:20:31;16.40;69.60
240;DHT22;104;53.590;10.004;2022-09-29T14:23:03;16.40;69.70
240;DHT22;104;53.590;10.004;2022-09-29T14:25:51;16.20;69.30
240;DHT22;104;53.590;10.004;2022-09-29T14:28:35;16.20;70.00
240;DHT22;104;53.590;10.004;2022-09-29T14:31:21;16.30;69.80
240;DHT22;104;53.590;10.004;2022-09-29T14:33:53;16.20;70.00
240;DHT22;104;53.590;10.004;2022-09-29T14:36:23;16.20;69.50
240;DHT22;104;53.590;10.004;2022-09-29T14:38:55;16.10;69.10
240;DHT22;104;53.590;10.004;2022-09-29T14:41:29;16.10;68.00
240;DHT22;104;53.590;10.004;2022-09-29T14:44:04;16.20;68.20
240;DHT22;104;53.590;10.004;2022-09-29T14:46:49;16.20;68.00
240;DHT22;104;53.590;10.004;2022-09-29T14:49:52;16.10;67.20
240;DHT22;104;53.590;10.004;2022-09-29T14:52:50;15.80;68.20
240;DHT22;104;53.590;10.004;2022-09-29T14:55:30;15.70;68.80
240;DHT22;104;53.590;10.004;2022-09-29T14:58:40;15.70;68.70
240;DHT22;104;53.590;10.004;2022-09-29T15:01:53;15.60;68.90
240;DHT22;104;53.590;10.004;2022-09-29T15:04:40;15.60;69.60
240;DHT22;104;53.590;10.004;2022-09-29T15:07:16;15.60;69.70
240;DHT22;104;53.590;10.004;2022-09-29T15:09:47;15.60;68.40
240;DHT22;104;53.590;10.004;2022-09-29T15:12:24;15.40;69.00
240;DHT22;104;53.590;10.004;2022-09-29T15:17:41;15.30;69.30
240;DHT22;104;53.590;10.004;2022-09-29T15:20:17;15.20;69.20
240;DHT22;104;53.590;10.004;2022-09-29T15:23:14;15.20;68.50
240;DHT22;104;53.590;10.004;2022-09-29T15:25:53;15.10;68.20
240;DHT22;104;53.590;10.004;2022-09-29T15:28:29;15.00;68.80
240;DHT22;104;53.590;10.004;2022-09-29T15:31:02;14.90;69.60
240;DHT22;104;53.590;10.004;2022-09-29T15:33:47;14.80;70.20
240;DHT22;104;53.590;10.004;2022-09-29T15:36:19;14.70;70.00
240;DHT22;104;53.590;10.004;2022-09-29T15:42:02;14.50;70.80
240;DHT22;104;53.590;10.004;2022-09-29T15:44:58;14.40;71.10
240;DHT22;104;53.590;10.004;2022-09-29T15:47:40;14.30;71.30
240;DHT22;104;53.590;10.004;2022-09-29T15:50:20;14.30;71.30
240;DHT22;104;53.590;10.004;2022-09-29T15:53:05;14.30;71.40
240;DHT22;104;53.590;10.004;2022-09-29T15:56:00;14.20;71.00
240;DHT22;104;53.590;10.004;2022-09-29T15:58:42;14.20;71.50
240;DHT22;104;53.590;10.004;2022-09-29T16:01:11;14.10;72.20
240;DHT22;104;53.590;10.004;2022-09-29T16:03:45;14.10;72.00
240;DHT22;104;53.590;10.004;2022-09-29T16:06:35;14.10;72.00
240;DHT22;104;53.590;10.004;2022-09-29T16:09:05;13.90;73.00
240;DHT22;104;53.590;10.004;2022-09-29T16:11:36;13.80;74.00
240;DHT22;104;53.590;10.004;2022-09-29T16:14:07;13.80;74.80
240;DHT22;104;53.590;10.004;2022-09-29T16:16:39;13.90;74.20
240;DHT22;104;53.590;10.004;2022-09-29T16:19:11;13.80;74.70
240;DHT22;104;53.590;10.004;2022-09-29T16:21:42;13.80;75.50
240;DHT22;104;53.590;10.004;2022-09-29T16:24:14;13.70;75.50
240;DHT22;104;53.590;10.004;2022-09-29T16:26:48;13.70;75.70
240;DHT22;104;53.590;10.004;2022-09-29T16:29:29;13.70;75.30
240;DHT22;104;53.590;10.004;2022-09-29T16:31:58;13.70;75.60
240;DHT22;104;53.590;10.004;2022-09-29T16:34:29;13.60;75.10
240;DHT22;104;53.590;10.004;2022-09-29T16:37:01;13.60;75.90
240;DHT22;104;53.590;10.004;2022-09-29T16:39:39;13.50;76.80
240;DHT22;104;53.590;10.004;2022-09-29T16:42:21;13.50;78.40
240;DHT22;104;53.590;10.004;2022-09-29T16:44:51;13.40;78.90
240;DHT22;104;53.590;10.004;2022-09-29T16:47:19;13.20;79.40
240;DHT22;104;53.590;10.004;2022-09-29T16:52:21;12.90;81.10
240;DHT22;104;53.590;10.004;2022-09-29T16:54:53;12.70;82.40
240;DHT22;104;53.590;10.004;2022-09-29T16:57:23;12.60;83.30
240;DHT22;104;53.590;10.004;2022-09-29T16:59:52;12.50;84.00
240;DHT22;104;53.590;10.004;2022-09-29T17:02:20;12.40;84.40
240;DHT22;104;53.590;10.004;2022-09-29T17:05:01;12.30;84.00
240;DHT22;104;53.590;10.004;2022-09-29T17:07:38;12.20;84.50
240;DHT22;104;53.590;10.004;2022-09-29T17:10:14;12.20;84.60
240;DHT22;104;53.590;10.004;2022-09-29T17:15:27;12.10;85.50
240;DHT22;104;53.590;10.004;2022-09-29T17:17:55;12.10;86.70
240;DHT22;104;53.590;10.004;2022-09-29T17:20:23;12.10;86.80
240;DHT22;104;53.590;10.004;2022-09-29T17:30:39;11.90;85.20
240;DHT22;104;53.590;10.004;2022-09-29T17:33:08;11.90;86.10
240;DHT22;104;53.590;10.004;2022-09-29T17:35:39;11.90;86.10
240;DHT22;104;53.590;10.004;2022-09-29T17:38:13;11.90;87.40
240;DHT22;104;53.590;10.004;2022-09-29T17:40:49;11.90;88.40
240;DHT22;104;53.590;10.004;2022-09-29T17:56:16;12.00;88.40
240;DHT22;104;53.590;10.004;2022-09-29T18:01:16;12.00;87.50
240;DHT22;104;53.590;10.004;2022-09-29T18:32:15;12.10;88.40
240;DHT22;104;53.590;10.004;2022-09-29T18:42:10;11.90;89.60
240;DHT22;104;53.590;10.004;2022-09-29T19:09:16;11.80;93.00
240;DHT22;104;53.590;10.004;2022-09-29T19:19:12;11.60;94.50
240;DHT22;104;53.590;10.004;2022-09-29T19:29:03;11.30;95.60
240;DHT22;104;53.590;10.004;2022-09-29T19:31:31;11.30;96.30
240;DHT22;104;53.590;10.004;2022-09-29T19:36:38;11.30;96.80
240;DHT22;104;53.590;10.004;2022-09-29T19:49:03;11.30;96.80
240;DHT22;104;53.590;10.004;2022-09-29T19:51:33;11.50;96.30